sensor_id;sensor_type;location;lat;lon;timestamp;temperature;humidity
46309;DHT22;32037;50.820;6.494;2023-03-20T00:02:06;12.00;99.90
46309;DHT22;32037;50.820;6.494;2023-03-20T00:04:34;12.10;99.90
46309;DHT22;32037;50.820;6.494;2023-03-20T00:07:02;12.10;99.90
46309;DHT22;32037;50.820;6.494;2023-03-20T00:09:31;12.00;99.90
46309;DHT22;32037;50.820;6.494;2023-03-20T00:11:59;12.10;99.90
46309;DHT22;32037;50.820;6.494;2023-03-20T00:14:28;12.10;99.90
46309;DHT22;32037;50.820;6.494;2023-03-20T00:16:57;12.10;99.90
46309;DHT22;32037;50.820;6.494;2023-03-20T00:19:28;12.00;99.90
46309;DHT22;32037;50.820;6.494;2023-03-20T00:21:57;12.10;99.90
46309;DHT22;32037;50.820;6.494;2023-03-20T00:24:25;12.10;99.90
46309;DHT22;32037;50.820;6.494;2023-03-20T00:26:54;12.10;99.90
46309;DHT22;32037;50.820;6.494;2023-03-20T00:29:24;12.00;99.90
46309;DHT22;32037;50.820;6.494;2023-03-20T00:31:54;12.00;99.90
46309;DHT22;32037;50.820;6.494;2023-03-20T00:34:24;12.00;99.90
46309;DHT22;32037;50.820;6.494;2023-03-20T00:36:54;12.00;99.90
46309;DHT22;32037;50.820;6.494;2023-03-20T00:39:24;12.00;99.90
46309;DHT22;32037;50.820;6.494;2023-03-20T00:41:54;12.00;99.90
46309;DHT22;32037;50.820;6.494;2023-03-20T00:44:24;12.00;99.90
46309;DHT22;32037;50.820;6.494;2023-03-20T00:46:55;12.00;99.90
46309;DHT22;32037;50.820;6.494;2023-03-20T00:49:27;12.00;99.90
46309;DHT22;32037;50.820;6.494;2023-03-20T00:51:57;12.00;99.90
46309;DHT22;32037;50.820;6.494;2023-03-20T00:54:27;12.00;99.90
46309;DHT22;32037;50.820;6.494;2023-03-20T00:57:00;12.00;99.90
46309;DHT22;32037;50.820;6.494;2023-03-20T00:59:31;12.00;99.90
46309;DHT22;32037;50.820;6.494;2023-03-20T01:02:00;12.00;99.90
46309;DHT22;32037;50.820;6.494;2023-03-20T01:04:34;12.00;99.90
46309;DHT22;32037;50.820;6.494;2023-03-20T01:07:08;12.00;99.90
46309;DHT22;32037;50.820;6.494;2023-03-20T01:09:39;12.00;99.90
46309;DHT22;32037;50.820;6.494;2023-03-20T01:12:10;12.00;99.90
46309;DHT22;32037;50.820;6.494;2023-03-20T01:14:40;12.00;99.90
46309;DHT22;32037;50.820;6.494;2023-03-20T01:17:10;12.00;99.90
46309;DHT22;32037;50.820;6.494;2023-03-20T01:19:44;12.00;99.90
46309;DHT22;32037;50.820;6.494;2023-03-20T01:22:14;12.00;99.90
46309;DHT22;32037;50.820;6.494;2023-03-20T01:24:44;12.00;99.90
46309;DHT22;32037;50.820;6.494;2023-03-20T01:27:15;12.00;99.90
46309;DHT22;32037;50.820;6.494;2023-03-20T01:29:43;12.00;99.90
46309;DHT22;32037;50.820;6.494;2023-03-20T01:32:17;12.00;99.90
46309;DHT22;32037;50.820;6.494;2023-03-20T01:34:48;12.00;99.90
46309;DHT22;32037;50.820;6.494;2023-03-20T01:37:23;12.00;99.90
46309;DHT22;32037;50.820;6.494;2023-03-20T01:39:52;12.00;99.90
46309;DHT22;32037;50.820;6.494;2023-03-20T01:42:21;12.00;99.90
46309;DHT22;32037;50.820;6.494;2023-03-20T01:44:50;12.00;99.90
46309;DHT22;32037;50.820;6.494;2023-03-20T01:47:21;12.00;99.90
46309;DHT22;32037;50.820;6.494;2023-03-20T01:50:22;12.00;99.90
46309;DHT22;32037;50.820;6.494;2023-03-20T01:53:05;12.00;99.90
46309;DHT22;32037;50.820;6.494;2023-03-20T01:55:39;12.00;99.90
46309;DHT22;32037;50.820;6.494;2023-03-20T01:58:13;12.00;99.90
46309;DHT22;32037;50.820;6.494;2023-03-20T02:00:43;12.00;99.90
46309;DHT22;32037;50.820;6.494;2023-03-20T02:03:15;12.00;99.90
46309;DHT22;32037;50.820;6.494;2023-03-20T02:06:02;11.90;99.90
46309;DHT22;32037;50.820;6.494;2023-03-20T02:08:53;11.90;99.90
46309;DHT22;32037;50.820;6.494;2023-03-20T02:11:23;12.00;99.90
46309;DHT22;32037;50.820;6.494;2023-03-20T02:13:56;11.90;99.90
46309;DHT22;32037;50.820;6.494;2023-03-20T02:16:28;12.00;99.90
46309;DHT22;32037;50.820;6.494;2023-03-20T02:19:08;12.00;99.90
46309;DHT22;32037;50.820;6.494;2023-03-20T02:22:04;12.00;99.90
46309;DHT22;32037;50.820;6.494;2023-03-20T02:25:14;11.90;99.90
46309;DHT22;32037;50.820;6.494;2023-03-20T02:28:09;12.00;99.90
46309;DHT22;32037;50.820;6.494;2023-03-20T02:31:00;11.90;99.90
46309;DHT22;32037;50.820;6.494;2023-03-20T02:34:15;11.90;99.90
46309;DHT22;32037;50.820;6.494;2023-03-20T02:37:20;11.90;99.90
46309;DHT22;32037;50.820;6.494;2023-03-20T02:39:58;11.90;99.90
46309;DHT22;32037;50.820;6.494;2023-03-20T02:42:35;11.90;99.90
46309;DHT22;32037;50.820;6.494;2023-03-20T02:45:15;11.90;99.90
46309;DHT22;32037;50.820;6.494;2023-03-20T02:47:50;11.90;99.90
46309;DHT22;32037;50.820;6.494;2023-03-20T02:50:28;11.90;99.90
46309;DHT22;32037;50.820;6.494;2023-03-20T02:53:13;11.90;99.90
46309;DHT22;32037;50.820;6.494;2023-03-20T02:55:48;11.90;99.90
46309;DHT22;32037;50.820;6.494;2023-03-20T02:58:22;11.90;99.90
46309;DHT22;32037;50.820;6.494;2023-03-20T03:00:57;11.90;99.90
46309;DHT22;32037;50.820;6.494;2023-03-20T03:03:34;11.90;99.90
46309;DHT22;32037;50.820;6.494;2023-03-20T03:06:08;11.90;99.90
46309;DHT22;32037;50.820;6.494;2023-03-20T03:08:45;11.90;99.90
46309;DHT22;32037;50.820;6.494;2023-03-20T03:11:15;11.90;99.90
46309;DHT22;32037;50.820;6.494;2023-03-20T03:13:47;11.90;99.90
46309;DHT22;32037;50.820;6.494;2023-03-20T03:16:20;11.90;99.90
46309;DHT22;32037;50.820;6.494;2023-03-20T03:18:56;11.90;99.90
46309;DHT22;32037;50.820;6.494;2023-03-20T03:21:27;11.90;99.90
46309;DHT22;32037;50.820;6.494;2023-03-20T03:23:59;11.90;99.90
46309;DHT22;32037;50.820;6.494;2023-03-20T03:26:31;11.90;99.90
46309;DHT22;32037;50.820;6.494;2023-03-20T03:29:03;11.90;99.90
46309;DHT22;32037;50.820;6.494;2023-03-20T03:31:36;11.90;99.90
46309;DHT22;32037;50.820;6.494;2023-03-20T03:34:07;11.90;99.90
46309;DHT22;32037;50.820;6.494;2023-03-20T03:36:47;11.90;99.90
46309;DHT22;32037;50.820;6.494;2023-03-20T03:39:24;11.90;99.90
46309;DHT22;32037;50.820;6.494;2023-03-20T03:42:02;11.90;99.90
46309;DHT22;32037;50.820;6.494;2023-03-20T03:44:42;11.80;99.90
46309;DHT22;32037;50.820;6.494;2023-03-20T03:47:14;11.80;99.90
46309;DHT22;32037;50.820;6.494;2023-03-20T03:49:48;11.80;99.90
46309;DHT22;32037;50.820;6.494;2023-03-20T03:52:19;11.80;99.90
46309;DHT22;32037;50.820;6.494;2023-03-20T03:54:53;11.80;99.90
46309;DHT22;32037;50.820;6.494;2023-03-20T03:57:33;11.80;99.90
46309;DHT22;32037;50.820;6.494;2023-03-20T04:00:06;11.80;99.90
46309;DHT22;32037;50.820;6.494;2023-03-20T04:02:44;11.80;99.90
46309;DHT22;32037;50.820;6.494;2023-03-20T04:05:18;11.80;99.90
46309;DHT22;32037;50.820;6.494;2023-03-20T04:07:52;11.80;99.90
46309;DHT22;32037;50.820;6.494;2023-03-20T04:10:23;11.80;99.90
46309;DHT22;32037;50.820;6.494;2023-03-20T04:12:52;11.80;99.90
46309;DHT22;32037;50.820;6.494;2023-03-20T04:15:20;11.80;99.90
46309;DHT22;32037;50.820;6.494;2023-03-20T04:17:49;11.80;99.90
46309;DHT22;32037;50.820;6.494;2023-03-20T04:20:17;11.80;99.90
46309;DHT22;32037;50.820;6.494;2023-03-20T04:22:47;11.80;99.90
46309;DHT22;32037;50.820;6.494;2023-03-20T04:25:18;11.80;99.90
46309;DHT22;32037;50.820;6.494;2023-03-20T04:27:49;11.70;99.90
46309;DHT22;32037;50.820;6.494;2023-03-20T04:30:26;11.80;99.90
46309;DHT22;32037;50.820;6.494;2023-03-20T04:33:24;11.80;99.90
46309;DHT22;32037;50.820;6.494;2023-03-20T04:36:07;11.80;99.90
46309;DHT22;32037;50.820;6.494;2023-03-20T04:38:36;11.80;99.90
46309;DHT22;32037;50.820;6.494;2023-03-20T04:41:05;11.80;99.90
46309;DHT22;32037;50.820;6.494;2023-03-20T04:43:36;11.80;99.90
46309;DHT22;32037;50.820;6.494;2023-03-20T04:46:06;11.80;99.90
46309;DHT22;32037;50.820;6.494;2023-03-20T04:48:34;11.80;99.90
46309;DHT22;32037;50.820;6.494;2023-03-20T04:51:03;11.70;99.90
46309;DHT22;32037;50.820;6.494;2023-03-20T04:53:48;11.80;99.90
46309;DHT22;32037;50.820;6.494;2023-03-20T04:56:17;11.70;99.90
46309;DHT22;32037;50.820;6.494;2023-03-20T04:58:49;11.80;99.90
46309;DHT22;32037;50.820;6.494;2023-03-20T05:01:19;11.70;99.90
46309;DHT22;32037;50.820;6.494;2023-03-20T05:03:49;11.70;99.90
46309;DHT22;32037;50.820;6.494;2023-03-20T05:06:18;11.80;99.90
46309;DHT22;32037;50.820;6.494;2023-03-20T05:08:47;11.70;99.90
46309;DHT22;32037;50.820;6.494;2023-03-20T05:11:17;11.70;99.90
46309;DHT22;32037;50.820;6.494;2023-03-20T05:13:53;11.70;99.90
46309;DHT22;32037;50.820;6.494;2023-03-20T05:16:41;11.70;99.90
46309;DHT22;32037;50.820;6.494;2023-03-20T05:19:28;11.70;99.90
46309;DHT22;32037;50.820;6.494;2023-03-20T05:22:11;11.70;99.90
46309;DHT22;32037;50.820;6.494;2023-03-20T05:24:48;11.70;99.90
46309;DHT22;32037;50.820;6.494;2023-03-20T05:27:39;11.70;99.90
46309;DHT22;32037;50.820;6.494;2023-03-20T05:30:29;11.70;99.90
46309;DHT22;32037;50.820;6.494;2023-03-20T05:33:18;11.70;99.90
46309;DHT22;32037;50.820;6.494;2023-03-20T05:36:08;11.70;99.90
46309;DHT22;32037;50.820;6.494;2023-03-20T05:39:15;11.70;99.90
46309;DHT22;32037;50.820;6.494;2023-03-20T05:41:44;11.70;99.90
46309;DHT22;32037;50.820;6.494;2023-03-20T05:44:30;11.70;99.90
46309;DHT22;32037;50.820;6.494;2023-03-20T05:47:19;11.70;99.90
46309;DHT22;32037;50.820;6.494;2023-03-20T05:50:04;11.70;99.90
46309;DHT22;32037;50.820;6.494;2023-03-20T05:52:55;11.60;99.90
46309;DHT22;32037;50.820;6.494;2023-03-20T05:55:31;11.70;99.90
46309;DHT22;32037;50.820;6.494;2023-03-20T05:58:21;11.70;99.90
46309;DHT22;32037;50.820;6.494;2023-03-20T06:01:08;11.70;99.90
46309;DHT22;32037;50.820;6.494;2023-03-20T06:03:53;11.70;99.90
46309;DHT22;32037;50.820;6.494;2023-03-20T06:06:41;11.60;99.90
46309;DHT22;32037;50.820;6.494;2023-03-20T06:09:09;11.70;99.90
46309;DHT22;32037;50.820;6.494;2023-03-20T06:11:38;11.60;99.90
46309;DHT22;32037;50.820;6.494;2023-03-20T06:14:07;11.60;99.90
46309;DHT22;32037;50.820;6.494;2023-03-20T06:16:39;11.60;99.90
46309;DHT22;32037;50.820;6.494;2023-03-20T06:19:10;11.60;99.90
46309;DHT22;32037;50.820;6.494;2023-03-20T06:21:40;11.60;99.90
46309;DHT22;32037;50.820;6.494;2023-03-20T06:24:12;11.60;99.90
46309;DHT22;32037;50.820;6.494;2023-03-20T06:26:41;11.60;99.90
46309;DHT22;32037;50.820;6.494;2023-03-20T06:29:12;11.60;99.90
46309;DHT22;32037;50.820;6.494;2023-03-20T06:31:40;11.60;99.90
46309;DHT22;32037;50.820;6.494;2023-03-20T06:34:17;11.60;99.90
46309;DHT22;32037;50.820;6.494;2023-03-20T06:36:47;11.60;99.90
46309;DHT22;32037;50.820;6.494;2023-03-20T06:39:19;11.60;99.90
46309;DHT22;32037;50.820;6.494;2023-03-20T06:41:48;11.60;99.90
46309;DHT22;32037;50.820;6.494;2023-03-20T06:44:21;11.60;99.90
46309;DHT22;32037;50.820;6.494;2023-03-20T06:47:04;11.60;99.90
46309;DHT22;32037;50.820;6.494;2023-03-20T06:49:35;11.50;99.90
46309;DHT22;32037;50.820;6.494;2023-03-20T06:52:04;11.60;99.90
46309;DHT22;32037;50.820;6.494;2023-03-20T06:54:35;11.60;99.90
46309;DHT22;32037;50.820;6.494;2023-03-20T06:57:04;11.60;99.90
46309;DHT22;32037;50.820;6.494;2023-03-20T06:59:32;11.60;99.90
46309;DHT22;32037;50.820;6.494;2023-03-20T07:02:01;11.60;99.90
46309;DHT22;32037;50.820;6.494;2023-03-20T07:04:30;11.60;99.90
46309;DHT22;32037;50.820;6.494;2023-03-20T07:07:03;11.60;99.90
46309;DHT22;32037;50.820;6.494;2023-03-20T07:09:33;11.50;99.90
46309;DHT22;32037;50.820;6.494;2023-03-20T07:12:02;11.60;99.90
46309;DHT22;32037;50.820;6.494;2023-03-20T07:14:33;11.60;99.90
46309;DHT22;32037;50.820;6.494;2023-03-20T07:17:07;11.50;99.90
46309;DHT22;32037;50.820;6.494;2023-03-20T07:19:36;11.60;99.90
46309;DHT22;32037;50.820;6.494;2023-03-20T07:22:09;11.60;99.90
46309;DHT22;32037;50.820;6.494;2023-03-20T07:24:39;11.60;99.90
46309;DHT22;32037;50.820;6.494;2023-03-20T07:27:10;11.60;99.90
46309;DHT22;32037;50.820;6.494;2023-03-20T07:29:38;11.50;99.90
46309;DHT22;32037;50.820;6.494;2023-03-20T07:32:12;11.60;99.90
46309;DHT22;32037;50.820;6.494;2023-03-20T07:34:47;11.50;99.90
46309;DHT22;32037;50.820;6.494;2023-03-20T07:37:19;11.50;99.90
46309;DHT22;32037;50.820;6.494;2023-03-20T07:39:56;11.50;99.90
46309;DHT22;32037;50.820;6.494;2023-03-20T07:42:43;11.50;99.90
46309;DHT22;32037;50.820;6.494;2023-03-20T07:45:31;11.50;99.90
46309;DHT22;32037;50.820;6.494;2023-03-20T07:47:59;11.50;99.90
46309;DHT22;32037;50.820;6.494;2023-03-20T07:50:28;11.50;99.90
46309;DHT22;32037;50.820;6.494;2023-03-20T07:52:58;11.50;99.90
46309;DHT22;32037;50.820;6.494;2023-03-20T07:55:27;11.50;99.90
46309;DHT22;32037;50.820;6.494;2023-03-20T07:57:55;11.50;99.90
46309;DHT22;32037;50.820;6.494;2023-03-20T08:00:25;11.50;99.90
46309;DHT22;32037;50.820;6.494;2023-03-20T08:02:54;11.50;99.90
46309;DHT22;32037;50.820;6.494;2023-03-20T08:05:24;11.50;99.90
46309;DHT22;32037;50.820;6.494;2023-03-20T08:07:53;11.50;99.90
46309;DHT22;32037;50.820;6.494;2023-03-20T08:10:23;11.50;99.90
46309;DHT22;32037;50.820;6.494;2023-03-20T08:12:52;11.50;99.90
46309;DHT22;32037;50.820;6.494;2023-03-20T08:15:21;11.50;99.90
46309;DHT22;32037;50.820;6.494;2023-03-20T08:17:49;11.50;99.90
46309;DHT22;32037;50.820;6.494;2023-03-20T08:20:18;11.50;99.90
46309;DHT22;32037;50.820;6.494;2023-03-20T08:22:47;11.50;99.90
46309;DHT22;32037;50.820;6.494;2023-03-20T08:25:16;11.50;99.90
46309;DHT22;32037;50.820;6.494;2023-03-20T08:27:47;11.50;99.90
46309;DHT22;32037;50.820;6.494;2023-03-20T08:30:17;11.50;99.90
46309;DHT22;32037;50.820;6.494;2023-03-20T08:32:45;11.50;99.90
46309;DHT22;32037;50.820;6.494;2023-03-20T08:35:13;11.40;99.90
46309;DHT22;32037;50.820;6.494;2023-03-20T08:37:58;11.40;99.90
46309;DHT22;32037;50.820;6.494;2023-03-20T08:40:27;11.50;99.90
46309;DHT22;32037;50.820;6.494;2023-03-20T08:42:57;11.40;99.90
46309;DHT22;32037;50.820;6.494;2023-03-20T08:45:26;11.40;99.90
46309;DHT22;32037;50.820;6.494;2023-03-20T08:47:55;11.40;99.90
46309;DHT22;32037;50.820;6.494;2023-03-20T08:50:23;11.40;99.90
46309;DHT22;32037;50.820;6.494;2023-03-20T08:52:52;11.40;99.90
46309;DHT22;32037;50.820;6.494;2023-03-20T08:55:20;11.40;99.90
46309;DHT22;32037;50.820;6.494;2023-03-20T08:57:49;11.40;99.90
46309;DHT22;32037;50.820;6.494;2023-03-20T09:00:19;11.40;99.90
46309;DHT22;32037;50.820;6.494;2023-03-20T09:02:49;11.40;99.90
46309;DHT22;32037;50.820;6.494;2023-03-20T09:05:18;11.40;99.90
46309;DHT22;32037;50.820;6.494;2023-03-20T09:07:46;11.40;99.90
46309;DHT22;32037;50.820;6.494;2023-03-20T09:10:16;11.40;99.90
46309;DHT22;32037;50.820;6.494;2023-03-20T09:12:44;11.40;99.90
46309;DHT22;32037;50.820;6.494;2023-03-20T09:15:13;11.40;99.90
46309;DHT22;32037;50.820;6.494;2023-03-20T09:17:43;11.40;99.90
46309;DHT22;32037;50.820;6.494;2023-03-20T09:20:11;11.40;99.90
46309;DHT22;32037;50.820;6.494;2023-03-20T09:22:40;11.40;99.90
46309;DHT22;32037;50.820;6.494;2023-03-20T09:25:10;11.40;99.90
46309;DHT22;32037;50.820;6.494;2023-03-20T09:27:39;11.40;99.90
46309;DHT22;32037;50.820;6.494;2023-03-20T09:30:09;11.40;99.90
46309;DHT22;32037;50.820;6.494;2023-03-20T09:32:38;11.40;99.90
46309;DHT22;32037;50.820;6.494;2023-03-20T09:35:08;11.40;99.90
46309;DHT22;32037;50.820;6.494;2023-03-20T09:37:37;11.40;99.90
46309;DHT22;32037;50.820;6.494;2023-03-20T09:40:06;11.40;99.90
46309;DHT22;32037;50.820;6.494;2023-03-20T09:42:43;11.40;99.90
46309;DHT22;32037;50.820;6.494;2023-03-20T09:45:19;11.30;99.90
46309;DHT22;32037;50.820;6.494;2023-03-20T09:47:53;11.40;99.90
46309;DHT22;32037;50.820;6.494;2023-03-20T09:50:32;11.40;99.90
46309;DHT22;32037;50.820;6.494;2023-03-20T09:53:04;11.40;99.90
46309;DHT22;32037;50.820;6.494;2023-03-20T09:55:38;11.40;99.90
46309;DHT22;32037;50.820;6.494;2023-03-20T09:58:13;11.40;99.90
46309;DHT22;32037;50.820;6.494;2023-03-20T10:00:45;11.40;99.90
46309;DHT22;32037;50.820;6.494;2023-03-20T10:03:19;11.40;99.90
46309;DHT22;32037;50.820;6.494;2023-03-20T10:05:55;11.40;99.90
46309;DHT22;32037;50.820;6.494;2023-03-20T10:08:27;11.40;99.90
46309;DHT22;32037;50.820;6.494;2023-03-20T10:11:05;11.40;99.90
46309;DHT22;32037;50.820;6.494;2023-03-20T10:13:47;11.40;99.90
46309;DHT22;32037;50.820;6.494;2023-03-20T10:16:26;11.30;99.90
46309;DHT22;32037;50.820;6.494;2023-03-20T10:19:06;11.30;99.90
46309;DHT22;32037;50.820;6.494;2023-03-20T10:21:43;11.30;99.90
46309;DHT22;32037;50.820;6.494;2023-03-20T10:24:16;11.40;99.90
46309;DHT22;32037;50.820;6.494;2023-03-20T10:26:49;11.30;99.90
46309;DHT22;32037;50.820;6.494;2023-03-20T10:29:25;11.30;99.90
46309;DHT22;32037;50.820;6.494;2023-03-20T10:32:03;11.30;99.90
46309;DHT22;32037;50.820;6.494;2023-03-20T10:34:56;11.20;99.90
46309;DHT22;32037;50.820;6.494;2023-03-20T10:37:40;11.20;99.90
46309;DHT22;32037;50.820;6.494;2023-03-20T10:40:28;11.20;99.90
46309;DHT22;32037;50.820;6.494;2023-03-20T10:43:00;11.20;99.90
46309;DHT22;32037;50.820;6.494;2023-03-20T10:45:39;11.20;99.90
46309;DHT22;32037;50.820;6.494;2023-03-20T10:48:15;11.20;99.90
46309;DHT22;32037;50.820;6.494;2023-03-20T10:50:47;11.30;99.90
46309;DHT22;32037;50.820;6.494;2023-03-20T10:53:29;11.20;99.90
46309;DHT22;32037;50.820;6.494;2023-03-20T10:56:01;11.30;99.90
46309;DHT22;32037;50.820;6.494;2023-03-20T10:58:32;11.30;99.90
46309;DHT22;32037;50.820;6.494;2023-03-20T11:01:02;11.30;99.90
46309;DHT22;32037;50.820;6.494;2023-03-20T11:03:32;11.30;99.90
46309;DHT22;32037;50.820;6.494;2023-03-20T11:06:05;11.30;99.90
46309;DHT22;32037;50.820;6.494;2023-03-20T11:08:40;11.30;99.90
46309;DHT22;32037;50.820;6.494;2023-03-20T11:11:09;11.30;99.90
46309;DHT22;32037;50.820;6.494;2023-03-20T11:13:38;11.30;99.90
46309;DHT22;32037;50.820;6.494;2023-03-20T11:16:15;11.30;99.90
46309;DHT22;32037;50.820;6.494;2023-03-20T11:18:45;11.30;99.90
46309;DHT22;32037;50.820;6.494;2023-03-20T11:21:19;11.30;99.90
46309;DHT22;32037;50.820;6.494;2023-03-20T11:23:49;11.30;99.90
46309;DHT22;32037;50.820;6.494;2023-03-20T11:26:19;11.20;99.90
46309;DHT22;32037;50.820;6.494;2023-03-20T11:28:56;11.30;99.90
46309;DHT22;32037;50.820;6.494;2023-03-20T11:31:30;11.30;99.90
46309;DHT22;32037;50.820;6.494;2023-03-20T11:34:10;11.30;99.90
46309;DHT22;32037;50.820;6.494;2023-03-20T11:36:53;11.30;99.90
46309;DHT22;32037;50.820;6.494;2023-03-20T11:39:37;11.20;99.90
46309;DHT22;32037;50.820;6.494;2023-03-20T11:42:22;11.20;99.90
46309;DHT22;32037;50.820;6.494;2023-03-20T11:44:59;11.20;99.90
46309;DHT22;32037;50.820;6.494;2023-03-20T11:47:31;11.20;99.90
46309;DHT22;32037;50.820;6.494;2023-03-20T11:50:02;11.20;99.90
46309;DHT22;32037;50.820;6.494;2023-03-20T11:52:35;11.20;99.90
46309;DHT22;32037;50.820;6.494;2023-03-20T11:55:16;11.20;99.90
46309;DHT22;32037;50.820;6.494;2023-03-20T11:57:50;11.30;99.90
46309;DHT22;32037;50.820;6.494;2023-03-20T12:00:20;11.30;99.90
46309;DHT22;32037;50.820;6.494;2023-03-20T12:02:50;11.30;99.90
46309;DHT22;32037;50.820;6.494;2023-03-20T12:05:29;11.20;99.90
46309;DHT22;32037;50.820;6.494;2023-03-20T12:08:01;11.20;99.90
46309;DHT22;32037;50.820;6.494;2023-03-20T12:10:37;11.20;99.90
46309;DHT22;32037;50.820;6.494;2023-03-20T12:13:13;11.20;99.90
46309;DHT22;32037;50.820;6.494;2023-03-20T12:15:46;11.20;99.90
46309;DHT22;32037;50.820;6.494;2023-03-20T12:18:21;11.20;99.90
46309;DHT22;32037;50.820;6.494;2023-03-20T12:21:02;11.20;99.90
46309;DHT22;32037;50.820;6.494;2023-03-20T12:23:34;11.20;99.90
46309;DHT22;32037;50.820;6.494;2023-03-20T12:26:09;11.20;99.90
46309;DHT22;32037;50.820;6.494;2023-03-20T12:28:43;11.20;99.90
46309;DHT22;32037;50.820;6.494;2023-03-20T12:31:21;11.20;99.90
46309;DHT22;32037;50.820;6.494;2023-03-20T12:33:53;11.20;99.90
46309;DHT22;32037;50.820;6.494;2023-03-20T12:36:28;11.30;99.90
46309;DHT22;32037;50.820;6.494;2023-03-20T12:38:58;11.20;99.90
46309;DHT22;32037;50.820;6.494;2023-03-20T12:41:37;11.30;99.90
46309;DHT22;32037;50.820;6.494;2023-03-20T12:44:17;11.30;99.90
46309;DHT22;32037;50.820;6.494;2023-03-20T12:46:52;11.20;99.90
46309;DHT22;32037;50.820;6.494;2023-03-20T12:49:31;11.20;99.90
46309;DHT22;32037;50.820;6.494;2023-03-20T12:52:11;11.20;99.90
46309;DHT22;32037;50.820;6.494;2023-03-20T12:54:58;11.30;99.90
46309;DHT22;32037;50.820;6.494;2023-03-20T12:57:34;11.20;99.90
46309;DHT22;32037;50.820;6.494;2023-03-20T13:00:21;11.20;99.90
46309;DHT22;32037;50.820;6.494;2023-03-20T13:03:04;11.30;99.90
46309;DHT22;32037;50.820;6.494;2023-03-20T13:05:41;11.20;99.90
46309;DHT22;32037;50.820;6.494;2023-03-20T13:11:15;11.30;99.90
46309;DHT22;32037;50.820;6.494;2023-03-20T13:13:51;11.30;99.90
46309;DHT22;32037;50.820;6.494;2023-03-20T13:16:31;11.30;99.90
46309;DHT22;32037;50.820;6.494;2023-03-20T13:19:06;11.30;99.90
46309;DHT22;32037;50.820;6.494;2023-03-20T13:21:43;11.30;99.90
46309;DHT22;32037;50.820;6.494;2023-03-20T13:27:27;11.30;99.90
46309;DHT22;32037;50.820;6.494;2023-03-20T13:30:04;11.30;99.90
46309;DHT22;32037;50.820;6.494;2023-03-20T13:32:45;11.30;99.90
46309;DHT22;32037;50.820;6.494;2023-03-20T13:35:33;11.30;99.90
46309;DHT22;32037;50.820;6.494;2023-03-20T13:38:10;11.30;99.90
46309;DHT22;32037;50.820;6.494;2023-03-20T13:40:40;11.30;99.90
46309;DHT22;32037;50.820;6.494;2023-03-20T13:43:22;11.30;99.90
46309;DHT22;32037;50.820;6.494;2023-03-20T13:45:58;11.30;99.90
46309;DHT22;32037;50.820;6.494;2023-03-20T13:48:31;11.30;99.90
46309;DHT22;32037;50.820;6.494;2023-03-20T13:51:09;11.30;99.90
46309;DHT22;32037;50.820;6.494;2023-03-20T13:53:48;11.30;99.90
46309;DHT22;32037;50.820;6.494;2023-03-20T13:56:28;11.30;99.90
46309;DHT22;32037;50.820;6.494;2023-03-20T14:02:19;11.30;99.90
46309;DHT22;32037;50.820;6.494;2023-03-20T14:04:52;11.30;99.90
46309;DHT22;32037;50.820;6.494;2023-03-20T14:07:30;11.30;99.90
46309;DHT22;32037;50.820;6.494;2023-03-20T14:10:33;11.30;99.90
46309;DHT22;32037;50.820;6.494;2023-03-20T14:13:12;11.30;99.90
46309;DHT22;32037;50.820;6.494;2023-03-20T14:15:48;11.30;99.90
46309;DHT22;32037;50.820;6.494;2023-03-20T14:18:21;11.30;99.90
46309;DHT22;32037;50.820;6.494;2023-03-20T14:20:53;11.30;99.90
46309;DHT22;32037;50.820;6.494;2023-03-20T14:23:34;11.30;99.90
46309;DHT22;32037;50.820;6.494;2023-03-20T14:26:19;11.30;99.90
46309;DHT22;32037;50.820;6.494;2023-03-20T14:28:54;11.30;99.90
46309;DHT22;32037;50.820;6.494;2023-03-20T14:31:27;11.30;99.90
46309;DHT22;32037;50.820;6.494;2023-03-20T14:34:11;11.30;99.90
46309;DHT22;32037;50.820;6.494;2023-03-20T14:36:54;11.30;99.90
46309;DHT22;32037;50.820;6.494;2023-03-20T14:39:35;11.30;99.90
46309;DHT22;32037;50.820;6.494;2023-03-20T14:42:24;11.30;99.90
46309;DHT22;32037;50.820;6.494;2023-03-20T14:47:47;11.30;99.90
46309;DHT22;32037;50.820;6.494;2023-03-20T14:50:22;11.30;99.90
46309;DHT22;32037;50.820;6.494;2023-03-20T14:53:00;11.40;99.90
46309;DHT22;32037;50.820;6.494;2023-03-20T14:55:46;11.40;99.90
46309;DHT22;32037;50.820;6.494;2023-03-20T14:58:47;11.40;99.90
46309;DHT22;32037;50.820;6.494;2023-03-20T15:01:26;11.40;99.90
46309;DHT22;32037;50.820;6.494;2023-03-20T15:03:58;11.50;99.90
46309;DHT22;32037;50.820;6.494;2023-03-20T15:06:44;11.50;99.90
46309;DHT22;32037;50.820;6.494;2023-03-20T15:09:15;11.50;99.90
46309;DHT22;32037;50.820;6.494;2023-03-20T15:11:45;11.50;99.90
46309;DHT22;32037;50.820;6.494;2023-03-20T15:14:19;11.50;99.90
46309;DHT22;32037;50.820;6.494;2023-03-20T15:16:56;11.60;99.90
46309;DHT22;32037;50.820;6.494;2023-03-20T15:19:24;11.60;99.90
46309;DHT22;32037;50.820;6.494;2023-03-20T15:21:54;11.50;99.90
46309;DHT22;32037;50.820;6.494;2023-03-20T15:24:24;11.60;99.90
46309;DHT22;32037;50.820;6.494;2023-03-20T15:26:54;11.60;99.90
46309;DHT22;32037;50.820;6.494;2023-03-20T15:29:23;11.60;99.90
46309;DHT22;32037;50.820;6.494;2023-03-20T15:31:54;11.60;99.90
46309;DHT22;32037;50.820;6.494;2023-03-20T15:34:40;11.60;99.90
46309;DHT22;32037;50.820;6.494;2023-03-20T15:37:14;11.60;99.90
46309;DHT22;32037;50.820;6.494;2023-03-20T15:39:46;11.60;99.90
46309;DHT22;32037;50.820;6.494;2023-03-20T15:42:18;11.60;99.90
46309;DHT22;32037;50.820;6.494;2023-03-20T15:44:48;11.60;99.90
46309;DHT22;32037;50.820;6.494;2023-03-20T15:47:19;11.70;99.90
46309;DHT22;32037;50.820;6.494;2023-03-20T15:49:50;11.70;99.90
46309;DHT22;32037;50.820;6.494;2023-03-20T15:52:29;11.60;99.90
46309;DHT22;32037;50.820;6.494;2023-03-20T15:55:01;11.70;99.90
46309;DHT22;32037;50.820;6.494;2023-03-20T15:57:34;11.60;99.90
46309;DHT22;32037;50.820;6.494;2023-03-20T16:00:04;11.70;99.90
46309;DHT22;32037;50.820;6.494;2023-03-20T16:02:35;11.60;99.90
46309;DHT22;32037;50.820;6.494;2023-03-20T16:05:07;11.70;99.90
46309;DHT22;32037;50.820;6.494;2023-03-20T16:07:37;11.60;99.90
46309;DHT22;32037;50.820;6.494;2023-03-20T16:10:16;11.60;99.90
46309;DHT22;32037;50.820;6.494;2023-03-20T16:12:48;11.60;99.90
46309;DHT22;32037;50.820;6.494;2023-03-20T16:15:19;11.60;99.90
46309;DHT22;32037;50.820;6.494;2023-03-20T16:17:51;11.70;99.90
46309;DHT22;32037;50.820;6.494;2023-03-20T16:20:20;11.70;99.90
46309;DHT22;32037;50.820;6.494;2023-03-20T16:22:51;11.70;99.90
46309;DHT22;32037;50.820;6.494;2023-03-20T16:25:23;11.60;99.90
46309;DHT22;32037;50.820;6.494;2023-03-20T16:27:52;11.70;99.90
46309;DHT22;32037;50.820;6.494;2023-03-20T16:30:24;11.60;99.90